createdAt,value
2022-07-31T00:00:26.657Z,18.48
2022-07-31T00:02:54.855Z,18.50
2022-07-31T00:05:23.119Z,18.52
2022-07-31T00:07:51.412Z,18.52
2022-07-31T00:10:21.329Z,18.52
2022-07-31T00:12:49.309Z,18.51
2022-07-31T00:15:17.542Z,18.51
2022-07-31T00:17:46.487Z,18.51
2022-07-31T00:20:16.906Z,18.51
2022-07-31T00:22:46.411Z,18.51
2022-07-31T00:25:15.765Z,18.51
2022-07-31T00:27:45.174Z,18.48
2022-07-31T00:30:14.222Z,18.49
2022-07-31T00:32:42.823Z,18.51
2022-07-31T00:35:12.429Z,18.51
2022-07-31T00:37:41.704Z,18.54
2022-07-31T00:40:13.315Z,18.56
2022-07-31T00:42:41.523Z,18.59
2022-07-31T00:45:13.659Z,18.58
2022-07-31T00:47:42.495Z,18.60
2022-07-31T00:50:11.903Z,18.61
2022-07-31T00:52:40.143Z,18.62
2022-07-31T00:55:09.426Z,18.60
2022-07-31T00:57:37.418Z,18.59
2022-07-31T01:00:06.961Z,18.59
2022-07-31T01:02:38.438Z,18.61
2022-07-31T01:05:14.767Z,18.63
2022-07-31T01:07:42.771Z,18.64
2022-07-31T01:10:12.427Z,18.67
2022-07-31T01:12:52.335Z,18.69
2022-07-31T01:15:24.383Z,18.70
2022-07-31T01:17:54.818Z,18.68
2022-07-31T01:20:23.816Z,18.69
2022-07-31T01:23:14.901Z,18.69
2022-07-31T01:25:57.437Z,18.70
2022-07-31T01:28:33.668Z,18.70
2022-07-31T01:31:27.291Z,18.71
2022-07-31T01:34:04.450Z,18.70
2022-07-31T01:36:35.453Z,18.71
2022-07-31T01:39:05.100Z,18.71
2022-07-31T01:41:42.028Z,18.70
2022-07-31T01:44:14.224Z,18.69
2022-07-31T01:46:45.918Z,18.66
2022-07-31T01:49:14.771Z,18.65
2022-07-31T01:51:45.531Z,18.65
2022-07-31T01:54:15.659Z,18.68
2022-07-31T01:56:44.872Z,18.68
2022-07-31T01:59:18.739Z,18.67
2022-07-31T02:01:53.408Z,18.66
2022-07-31T02:04:23.308Z,18.67
2022-07-31T02:06:52.159Z,18.67
2022-07-31T02:09:22.330Z,18.65
2022-07-31T02:11:54.733Z,18.64
2022-07-31T02:14:24.285Z,18.64
2022-07-31T02:16:54.005Z,18.65
2022-07-31T02:19:23.734Z,18.65
2022-07-31T02:21:51.972Z,18.66
2022-07-31T02:24:20.083Z,18.68
2022-07-31T02:26:48.965Z,18.65
2022-07-31T02:29:19.681Z,18.65
2022-07-31T02:32:03.068Z,18.63
2022-07-31T02:34:35.911Z,18.62
2022-07-31T02:37:04.511Z,18.58
2022-07-31T02:39:34.721Z,18.57
2022-07-31T02:42:03.542Z,18.57
2022-07-31T02:44:34.754Z,18.58
2022-07-31T02:47:05.629Z,18.53
2022-07-31T02:49:35.817Z,18.50
2022-07-31T02:52:05.895Z,18.47
2022-07-31T02:54:36.650Z,18.46
2022-07-31T02:57:04.928Z,18.42
2022-07-31T02:59:33.204Z,18.41
2022-07-31T03:02:01.658Z,18.39
2022-07-31T03:04:30.652Z,18.39
2022-07-31T03:07:01.583Z,18.38
2022-07-31T03:09:30.814Z,18.40
2022-07-31T03:12:04.565Z,18.35
2022-07-31T03:14:35.463Z,18.34
2022-07-31T03:17:05.682Z,18.29
2022-07-31T03:19:34.347Z,18.28
2022-07-31T03:22:04.251Z,18.26
2022-07-31T03:24:32.832Z,18.26
2022-07-31T03:27:01.736Z,18.23
2022-07-31T03:29:42.517Z,18.24
2022-07-31T03:32:11.585Z,18.23
2022-07-31T03:34:39.610Z,18.21
2022-07-31T03:37:10.353Z,18.18
2022-07-31T03:39:38.382Z,18.18
2022-07-31T03:42:07.633Z,18.18
2022-07-31T03:44:47.728Z,18.15
2022-07-31T03:47:16.653Z,18.15
2022-07-31T03:49:45.326Z,18.16
2022-07-31T03:52:14.969Z,18.14
2022-07-31T03:54:43.711Z,18.13
2022-07-31T03:57:12.879Z,18.14
2022-07-31T03:59:48.435Z,18.14
2022-07-31T04:02:18.697Z,18.12
2022-07-31T04:04:47.432Z,18.11
2022-07-31T04:07:17.203Z,18.12
2022-07-31T04:09:45.377Z,18.12
2022-07-31T04:12:13.530Z,18.12
2022-07-31T04:14:41.589Z,18.10
2022-07-31T04:17:10.421Z,18.11
2022-07-31T04:19:39.436Z,18.11
2022-07-31T04:22:08.643Z,18.13
2022-07-31T04:24:38.270Z,18.12
2022-07-31T04:27:10.724Z,18.11
2022-07-31T04:29:40.654Z,18.10
2022-07-31T04:32:08.691Z,18.08
2022-07-31T04:34:36.713Z,18.08
2022-07-31T04:37:05.099Z,18.08
2022-07-31T04:39:33.083Z,18.07
2022-07-31T04:42:02.812Z,18.08
2022-07-31T04:44:31.461Z,18.08
2022-07-31T04:47:02.602Z,18.06
2022-07-31T04:49:32.241Z,18.06
2022-07-31T04:52:00.719Z,18.04
2022-07-31T04:54:29.895Z,18.05
2022-07-31T04:56:57.983Z,18.05
2022-07-31T04:59:58.497Z,18.05
2022-07-31T05:02:15.754Z,18.05
2022-07-31T05:04:43.781Z,18.04
2022-07-31T05:07:11.872Z,18.04
2022-07-31T05:09:39.827Z,18.04
2022-07-31T05:12:08.314Z,18.04
2022-07-31T05:14:37.728Z,18.04
2022-07-31T05:17:05.847Z,18.04
2022-07-31T05:19:33.875Z,18.02
2022-07-31T05:22:02.821Z,18.04
2022-07-31T05:24:32.768Z,18.05
2022-07-31T05:27:02.168Z,18.07
2022-07-31T05:29:30.270Z,18.07
2022-07-31T05:32:01.000Z,18.07
2022-07-31T05:34:30.752Z,18.07
2022-07-31T05:36:59.098Z,18.09
2022-07-31T05:39:28.284Z,18.09
2022-07-31T05:41:56.337Z,18.10
2022-07-31T05:44:24.676Z,18.10
2022-07-31T05:49:22.553Z,18.09
2022-07-31T05:51:54.273Z,18.09
2022-07-31T05:54:22.480Z,18.10
2022-07-31T05:56:50.604Z,18.10
2022-07-31T05:59:18.690Z,18.10
2022-07-31T06:01:46.906Z,18.10
2022-07-31T06:04:14.971Z,18.13
2022-07-31T06:06:44.444Z,18.13
2022-07-31T06:09:12.427Z,18.13
2022-07-31T06:11:40.437Z,18.14
2022-07-31T06:14:08.454Z,18.14
2022-07-31T06:16:37.199Z,18.14
2022-07-31T06:19:05.223Z,18.16
2022-07-31T06:21:33.250Z,18.19
2022-07-31T06:24:02.697Z,18.20
2022-07-31T06:26:31.470Z,18.23
2022-07-31T06:28:59.555Z,18.24
2022-07-31T06:31:27.516Z,18.26
2022-07-31T06:33:55.795Z,18.27
2022-07-31T06:36:23.802Z,18.28
2022-07-31T06:38:51.815Z,18.28
2022-07-31T06:41:35.024Z,18.28
2022-07-31T06:44:02.967Z,18.30
2022-07-31T06:46:31.149Z,18.30
2022-07-31T06:48:59.290Z,18.33
2022-07-31T06:51:31.912Z,18.33
2022-07-31T06:54:00.812Z,18.31
2022-07-31T06:56:30.934Z,18.29
2022-07-31T06:58:59.081Z,18.29
2022-07-31T07:01:27.216Z,18.30
2022-07-31T07:03:56.511Z,18.31
2022-07-31T07:06:24.986Z,18.29
2022-07-31T07:08:53.766Z,18.28
2022-07-31T07:11:22.134Z,18.27
2022-07-31T07:13:51.564Z,18.27
2022-07-31T07:16:19.757Z,18.28
2022-07-31T07:18:48.268Z,18.31
2022-07-31T07:21:16.491Z,18.33
2022-07-31T07:23:45.050Z,18.34
2022-07-31T07:26:13.289Z,18.32
2022-07-31T07:28:41.525Z,18.30
2022-07-31T07:31:11.026Z,18.28
2022-07-31T07:33:39.610Z,18.28
2022-07-31T07:36:23.124Z,18.29
2022-07-31T07:38:54.900Z,18.31
2022-07-31T07:41:23.761Z,18.31
2022-07-31T07:43:52.729Z,18.30
2022-07-31T07:46:23.610Z,18.28
2022-07-31T07:48:52.082Z,18.28
2022-07-31T07:51:21.143Z,18.29
2022-07-31T07:53:49.723Z,18.30
2022-07-31T07:56:18.115Z,18.35
2022-07-31T07:58:46.156Z,18.40
2022-07-31T08:01:14.343Z,18.45
2022-07-31T08:03:51.456Z,18.44
2022-07-31T08:06:21.302Z,18.42
2022-07-31T08:08:49.447Z,18.41
2022-07-31T08:11:18.061Z,18.39
2022-07-31T08:13:50.695Z,18.37
2022-07-31T08:16:20.351Z,18.40
2022-07-31T08:18:50.504Z,18.43
2022-07-31T08:21:19.017Z,18.49
2022-07-31T08:23:47.442Z,18.52
2022-07-31T08:26:15.572Z,18.57
2022-07-31T08:28:50.350Z,18.59
2022-07-31T08:31:19.653Z,18.63
2022-07-31T08:33:49.115Z,18.67
2022-07-31T08:36:17.180Z,18.65
2022-07-31T08:38:45.268Z,18.66
2022-07-31T08:41:15.064Z,18.65
2022-07-31T08:44:01.801Z,18.62
2022-07-31T08:46:33.601Z,18.65
2022-07-31T08:49:04.732Z,18.75
2022-07-31T08:51:50.890Z,18.82
2022-07-31T08:54:23.687Z,18.91
2022-07-31T08:56:53.402Z,19.04
2022-07-31T08:59:22.113Z,19.09
2022-07-31T09:01:51.412Z,19.04
2022-07-31T09:04:21.068Z,19.11
2022-07-31T09:06:49.449Z,19.18
2022-07-31T09:09:18.715Z,19.24
2022-07-31T09:11:50.508Z,19.25
2022-07-31T09:14:27.540Z,19.32
2022-07-31T09:16:56.095Z,19.32
2022-07-31T09:19:51.824Z,19.28
2022-07-31T09:22:23.756Z,19.44
2022-07-31T09:24:53.263Z,19.50
2022-07-31T09:27:28.949Z,19.58
2022-07-31T09:29:58.476Z,19.67
2022-07-31T09:32:26.519Z,19.60
2022-07-31T09:34:56.325Z,19.68
2022-07-31T09:37:27.375Z,19.75
2022-07-31T09:39:57.404Z,19.80
2022-07-31T09:42:36.093Z,19.76
2022-07-31T09:45:18.330Z,19.76
2022-07-31T09:47:46.747Z,19.69
2022-07-31T09:50:24.510Z,19.63
2022-07-31T09:53:00.114Z,19.66
2022-07-31T09:55:28.355Z,19.73
2022-07-31T09:57:58.341Z,19.83
2022-07-31T10:00:27.892Z,19.82
2022-07-31T10:02:58.689Z,19.83
2022-07-31T10:05:29.282Z,19.77
2022-07-31T10:08:00.237Z,19.72
2022-07-31T10:10:30.601Z,19.58
2022-07-31T10:13:03.228Z,19.58
2022-07-31T10:15:32.823Z,19.65
2022-07-31T10:18:02.260Z,19.65
2022-07-31T10:20:34.090Z,19.65
2022-07-31T10:23:10.220Z,19.60
2022-07-31T10:25:53.281Z,19.56
2022-07-31T10:28:22.961Z,19.59
2022-07-31T10:30:51.686Z,19.57
2022-07-31T10:33:43.113Z,19.67
2022-07-31T10:36:19.904Z,19.58
2022-07-31T10:39:02.149Z,19.57
2022-07-31T10:41:42.615Z,19.57
2022-07-31T10:44:15.095Z,19.51
2022-07-31T10:46:43.232Z,19.42
2022-07-31T10:49:11.360Z,19.46
2022-07-31T10:51:49.542Z,19.48
2022-07-31T10:54:17.706Z,19.53
2022-07-31T10:56:48.333Z,19.54
2022-07-31T10:59:16.337Z,19.53
2022-07-31T11:01:53.380Z,19.53
2022-07-31T11:04:27.980Z,19.57
2022-07-31T11:06:57.694Z,19.62
2022-07-31T11:09:27.434Z,19.63
2022-07-31T11:11:56.424Z,19.68
2022-07-31T11:14:34.651Z,19.60
2022-07-31T11:17:04.547Z,19.58
2022-07-31T11:19:41.451Z,19.53
2022-07-31T11:22:31.502Z,19.52
2022-07-31T11:25:01.148Z,19.57
2022-07-31T11:27:32.796Z,19.68
2022-07-31T11:30:10.998Z,19.78
2022-07-31T11:32:41.329Z,19.89
2022-07-31T11:35:10.147Z,19.96
2022-07-31T11:37:56.225Z,20.01
2022-07-31T11:40:25.891Z,20.11
2022-07-31T11:43:24.931Z,20.20
2022-07-31T11:45:49.714Z,20.19
2022-07-31T11:48:19.311Z,20.18
2022-07-31T11:50:48.626Z,20.16
2022-07-31T11:53:19.139Z,20.27
2022-07-31T11:55:50.348Z,20.45
2022-07-31T11:58:21.410Z,20.56
2022-07-31T12:00:51.111Z,20.67
2022-07-31T12:03:20.400Z,20.81
2022-07-31T12:05:50.538Z,20.91
2022-07-31T12:08:20.696Z,21.01
2022-07-31T12:10:49.465Z,21.07
2022-07-31T12:13:19.289Z,21.11
2022-07-31T12:15:58.728Z,21.17
2022-07-31T12:18:28.749Z,21.36
2022-07-31T12:20:59.053Z,21.62
2022-07-31T12:23:41.271Z,21.65
2022-07-31T12:26:11.854Z,21.73
2022-07-31T12:28:39.881Z,21.85
2022-07-31T12:31:07.903Z,21.87
2022-07-31T12:33:43.306Z,21.94
2022-07-31T12:37:14.289Z,21.98
2022-07-31T12:39:59.635Z,22.09
2022-07-31T12:42:36.301Z,22.13
2022-07-31T12:45:18.043Z,22.16
2022-07-31T12:47:51.870Z,22.21
2022-07-31T12:50:20.825Z,22.09
2022-07-31T12:52:49.092Z,22.03
2022-07-31T12:55:18.903Z,22.07
2022-07-31T12:57:51.188Z,22.16
2022-07-31T13:00:22.660Z,22.11
2022-07-31T13:02:51.899Z,22.20
2022-07-31T13:05:20.527Z,22.28
2022-07-31T13:07:48.885Z,22.31
2022-07-31T13:10:20.950Z,22.27
2022-07-31T13:12:51.452Z,22.13
2022-07-31T13:15:22.534Z,21.90
2022-07-31T13:17:51.295Z,21.92
2022-07-31T13:20:19.933Z,21.82
2022-07-31T13:22:48.004Z,21.58
2022-07-31T13:25:16.385Z,21.41
2022-07-31T13:27:45.788Z,21.36
2022-07-31T13:30:15.113Z,21.35
2022-07-31T13:32:43.159Z,21.31
2022-07-31T13:35:19.534Z,21.43
2022-07-31T13:37:55.469Z,21.56
2022-07-31T13:40:44.019Z,21.73
2022-07-31T13:43:14.189Z,22.09
2022-07-31T13:45:42.297Z,22.18
2022-07-31T13:48:10.575Z,22.12
2022-07-31T13:50:39.701Z,22.12
2022-07-31T13:53:08.110Z,22.02
2022-07-31T13:55:36.260Z,22.06
2022-07-31T13:58:04.531Z,22.21
2022-07-31T14:00:34.159Z,22.28
2022-07-31T14:03:02.190Z,22.35
2022-07-31T14:05:30.246Z,22.45
2022-07-31T14:08:29.837Z,22.45
2022-07-31T14:10:57.266Z,22.37
2022-07-31T14:13:26.032Z,22.38
2022-07-31T14:15:55.848Z,22.40
2022-07-31T14:18:24.537Z,22.63
2022-07-31T14:20:52.896Z,22.92
2022-07-31T14:23:21.597Z,23.13
2022-07-31T14:26:02.949Z,23.31
2022-07-31T14:28:31.088Z,23.40
2022-07-31T14:31:00.446Z,23.32
2022-07-31T14:33:28.644Z,23.46
2022-07-31T14:35:56.623Z,23.46
2022-07-31T14:38:27.287Z,23.30
2022-07-31T14:40:55.848Z,23.05
2022-07-31T14:43:23.875Z,22.86
2022-07-31T14:45:52.507Z,22.70
2022-07-31T14:48:23.214Z,22.65
2022-07-31T14:50:51.242Z,22.58
2022-07-31T14:53:19.276Z,22.61
2022-07-31T14:55:48.630Z,22.69
2022-07-31T14:58:17.667Z,22.66
2022-07-31T15:00:45.991Z,22.54
2022-07-31T15:03:14.006Z,22.39
2022-07-31T15:06:39.867Z,22.17
2022-07-31T15:08:31.477Z,21.98
2022-07-31T15:10:59.497Z,21.82
2022-07-31T15:13:27.470Z,21.69
2022-07-31T15:15:55.493Z,21.63
2022-07-31T15:18:25.845Z,21.62
2022-07-31T15:20:55.456Z,21.79
2022-07-31T15:23:23.534Z,21.84
2022-07-31T15:25:51.544Z,21.79
2022-07-31T15:28:19.771Z,21.82
2022-07-31T15:30:47.737Z,21.94
2022-07-31T15:33:15.830Z,22.24
2022-07-31T15:35:43.834Z,22.50
2022-07-31T15:38:13.270Z,22.70
2022-07-31T15:40:41.268Z,22.81
2022-07-31T15:43:09.251Z,23.10
2022-07-31T15:45:37.210Z,23.17
2022-07-31T15:48:09.799Z,23.15
2022-07-31T15:50:38.945Z,23.05
2022-07-31T15:53:06.928Z,22.87
2022-07-31T15:55:36.445Z,22.63
2022-07-31T15:58:04.608Z,22.53
2022-07-31T16:00:32.581Z,22.41
2022-07-31T16:03:01.450Z,22.37
2022-07-31T16:05:36.854Z,22.42
2022-07-31T16:08:30.686Z,22.35
2022-07-31T16:10:57.556Z,22.36
2022-07-31T16:13:26.015Z,22.37
2022-07-31T16:15:54.075Z,22.44
2022-07-31T16:18:22.187Z,22.39
2022-07-31T16:20:50.243Z,22.42
2022-07-31T16:23:18.377Z,22.54
2022-07-31T16:25:46.499Z,22.60
2022-07-31T16:28:15.945Z,22.64
2022-07-31T16:30:45.664Z,22.60
2022-07-31T16:33:13.723Z,22.71
2022-07-31T16:35:41.796Z,22.86
2022-07-31T16:38:09.874Z,23.14
2022-07-31T16:40:38.096Z,23.44
2022-07-31T16:43:49.894Z,23.91
2022-07-31T16:45:57.263Z,24.38
2022-07-31T16:48:25.406Z,24.89
2022-07-31T16:50:55.024Z,25.49
2022-07-31T16:54:14.148Z,25.97
2022-07-31T16:56:13.029Z,26.14
2022-07-31T16:58:41.277Z,25.89
2022-07-31T17:01:58.724Z,25.61
2022-07-31T17:04:03.182Z,25.19
2022-07-31T17:06:36.200Z,24.85
2022-07-31T17:09:16.019Z,24.50
2022-07-31T17:11:47.815Z,24.18
2022-07-31T17:14:16.512Z,23.95
2022-07-31T17:16:47.884Z,23.71
2022-07-31T17:19:35.956Z,23.57
2022-07-31T17:22:07.247Z,23.59
2022-07-31T17:24:37.187Z,23.57
2022-07-31T17:27:06.371Z,23.51
2022-07-31T17:29:34.776Z,23.56
2022-07-31T17:32:04.877Z,23.70
2022-07-31T17:34:32.890Z,24.09
2022-07-31T17:37:00.925Z,24.78
2022-07-31T17:39:31.017Z,25.44
2022-07-31T17:41:59.436Z,25.87
2022-07-31T17:44:27.659Z,26.21
2022-07-31T17:46:58.088Z,26.44
2022-07-31T17:49:28.903Z,26.58
2022-07-31T17:51:59.310Z,26.86
2022-07-31T17:54:28.550Z,27.23
2022-07-31T17:56:56.716Z,27.37
2022-07-31T17:59:26.014Z,27.43
2022-07-31T18:01:59.823Z,27.36
2022-07-31T18:04:32.113Z,26.93
2022-07-31T18:07:01.626Z,26.32
2022-07-31T18:09:29.856Z,25.66
2022-07-31T18:11:58.923Z,25.19
2022-07-31T18:14:27.352Z,24.62
2022-07-31T18:16:55.910Z,24.12
2022-07-31T18:19:24.408Z,23.76
2022-07-31T18:21:54.632Z,23.50
2022-07-31T18:24:23.299Z,23.24
2022-07-31T18:26:53.804Z,22.99
2022-07-31T18:29:21.957Z,22.78
2022-07-31T18:31:50.561Z,22.63
2022-07-31T18:34:18.561Z,22.46
2022-07-31T18:36:47.934Z,22.32
2022-07-31T18:39:19.967Z,22.13
2022-07-31T18:41:49.076Z,21.96
2022-07-31T18:44:17.571Z,21.77
2022-07-31T18:46:45.676Z,21.57
2022-07-31T18:51:03.014Z,21.41
2022-07-31T18:52:02.302Z,21.25
2022-07-31T18:54:33.183Z,21.14
2022-07-31T18:57:03.860Z,21.10
2022-07-31T18:59:32.326Z,21.00
2022-07-31T19:02:00.608Z,20.89
2022-07-31T19:04:29.003Z,20.79
2022-07-31T19:06:57.377Z,20.69
2022-07-31T19:09:25.443Z,20.58
2022-07-31T19:12:03.617Z,20.48
2022-07-31T19:14:35.631Z,20.32
2022-07-31T19:17:03.922Z,20.22
2022-07-31T19:19:47.527Z,20.10
2022-07-31T19:22:20.854Z,19.97
2022-07-31T19:24:49.568Z,19.87
2022-07-31T19:27:19.644Z,19.78
2022-07-31T19:29:47.730Z,19.73
2022-07-31T19:32:15.777Z,19.68
2022-07-31T19:34:47.984Z,19.62
2022-07-31T19:37:20.456Z,19.57
2022-07-31T19:39:48.481Z,19.52
2022-07-31T19:42:16.669Z,19.47
2022-07-31T19:44:46.219Z,19.45
2022-07-31T19:47:14.245Z,19.42
2022-07-31T19:49:44.681Z,19.37
2022-07-31T19:52:12.833Z,19.29
2022-07-31T19:54:41.028Z,19.20
2022-07-31T19:57:10.865Z,19.14
2022-07-31T19:59:38.930Z,19.09
2022-07-31T20:02:08.659Z,19.02
2022-07-31T20:04:37.357Z,18.98
2022-07-31T20:07:05.441Z,18.95
2022-07-31T20:09:33.941Z,18.90
2022-07-31T20:12:02.058Z,18.85
2022-07-31T20:14:31.381Z,18.81
2022-07-31T20:16:59.402Z,18.75
2022-07-31T20:19:29.155Z,18.71
2022-07-31T20:21:57.554Z,18.68
2022-07-31T20:24:27.214Z,18.66
2022-07-31T20:26:55.419Z,18.63
2022-07-31T20:29:23.390Z,18.62
2022-07-31T20:31:51.667Z,18.61
2022-07-31T20:34:19.697Z,18.60
2022-07-31T20:36:49.015Z,18.58
2022-07-31T20:39:16.987Z,18.58
2022-07-31T20:41:45.607Z,18.57
2022-07-31T20:44:13.500Z,18.55
2022-07-31T20:46:41.467Z,18.54
2022-07-31T20:49:27.239Z,18.50
2022-07-31T20:51:58.830Z,18.46
2022-07-31T20:54:34.050Z,18.41
2022-07-31T20:57:02.718Z,18.36
2022-07-31T20:59:31.341Z,18.30
2022-07-31T21:01:59.403Z,18.25
2022-07-31T21:04:27.434Z,18.21
2022-07-31T21:06:55.454Z,18.18
2022-07-31T21:09:24.802Z,18.13
2022-07-31T21:11:52.799Z,18.12
2022-07-31T21:14:21.504Z,18.12
2022-07-31T21:16:49.428Z,18.13
2022-07-31T21:19:17.710Z,18.13
2022-07-31T21:21:45.729Z,18.13
2022-07-31T21:24:14.565Z,18.12
2022-07-31T21:26:46.532Z,18.12
2022-07-31T21:29:19.208Z,18.11
2022-07-31T21:31:49.968Z,18.08
2022-07-31T21:34:18.831Z,18.06
2022-07-31T21:36:48.513Z,18.06
2022-07-31T21:39:18.624Z,18.05
2022-07-31T21:41:49.324Z,18.02
2022-07-31T21:44:18.652Z,18.00
2022-07-31T21:46:51.813Z,17.99
2022-07-31T21:49:21.158Z,17.95
2022-07-31T21:51:49.737Z,17.93
2022-07-31T21:54:18.995Z,17.90
2022-07-31T21:56:48.505Z,17.89
2022-07-31T21:59:16.515Z,17.88
2022-07-31T22:01:57.339Z,17.84
2022-07-31T22:04:30.959Z,17.82
2022-07-31T22:07:20.618Z,17.78
2022-07-31T22:09:48.635Z,17.72
2022-07-31T22:12:17.963Z,17.71
2022-07-31T22:14:46.007Z,17.69
2022-07-31T22:17:14.055Z,17.67
2022-07-31T22:19:45.233Z,17.67
2022-07-31T22:22:16.392Z,17.66
2022-07-31T22:24:44.861Z,17.64
2022-07-31T22:27:32.063Z,17.62
2022-07-31T22:30:02.283Z,17.56
2022-07-31T22:32:30.897Z,17.50
2022-07-31T22:34:58.967Z,17.46
2022-07-31T22:37:28.176Z,17.43
2022-07-31T22:39:56.632Z,17.40
2022-07-31T22:42:25.061Z,17.37
2022-07-31T22:44:53.268Z,17.35
2022-07-31T22:47:23.040Z,17.34
2022-07-31T22:49:51.461Z,17.32
2022-07-31T22:52:19.632Z,17.30
2022-07-31T22:54:47.610Z,17.27
2022-07-31T22:57:16.419Z,17.25
2022-07-31T22:59:45.469Z,17.20
2022-07-31T23:02:15.742Z,17.19
2022-07-31T23:04:45.874Z,17.16
2022-07-31T23:07:14.031Z,17.12
2022-07-31T23:09:42.108Z,17.11
2022-07-31T23:12:11.069Z,17.10
2022-07-31T23:14:39.133Z,17.09
2022-07-31T23:17:07.168Z,17.08
2022-07-31T23:19:35.238Z,17.08
2022-07-31T23:22:04.881Z,17.07
2022-07-31T23:24:33.189Z,17.06
2022-07-31T23:27:01.195Z,17.05
2022-07-31T23:29:29.221Z,17.03
2022-07-31T23:31:57.273Z,17.02
2022-07-31T23:34:25.256Z,16.99
2022-07-31T23:36:53.624Z,16.94
2022-07-31T23:39:23.094Z,16.92
2022-07-31T23:42:09.013Z,16.91
2022-07-31T23:44:40.033Z,16.93
2022-07-31T23:47:09.082Z,16.94
2022-07-31T23:49:37.369Z,16.96
2022-07-31T23:52:06.011Z,16.97
2022-07-31T23:54:35.727Z,16.98
2022-07-31T23:57:03.814Z,17.00
2022-07-31T23:59:31.881Z,16.97
